Latest Weather Observations for Condobolin Airport

IDN60801

Issued at 7:32 am EDT Monday 23 October 2017 (issued every 30 minutes, with the page automatically refreshed every 10 minutes)

About weather observations | Map of weather stations | Latest weather observations for NSW | Other Formats
Station Details ID: 050137 Name: CONDOBOLIN AIRPORT AWS Lat: -33.07 Lon: 147.21 Height: 192.6 m
Data from the previous 72 hours. | See also: Recent months at Condobolin Airport
Date/Time
EDT
Temp
°C
App
Temp
°C
Dew
Point
°C
Rel
Hum
%
Delta-T
°C
Wind Press
QNH
hPa
Press
MSL
hPa
Rain since
9am
mm
Dir  Spd
km/h
Gust
km/h
Spd
kts
Gust
kts
23/07:30am 12.3 12.3 9.7 84 1.3 CALM 0 0 0 0 1016.9 1016.5 0.0
23/07:00am 10.2 8.8 9.4 95 0.4 WSW 7 7 4 4 1016.5 1016.1 0.0
23/06:30am 9.0 7.4 8.1 94 0.4 WNW 6 9 3 5 1016.1 1015.7 0.0
23/06:00am 9.3 7.5 8.1 92 0.6 W 7 7 4 4 1015.7 1015.3 0.0
23/05:30am 10.0 9.6 8.3 89 0.8 CALM 0 7 0 4 1015.5 1015.1 0.0
23/05:00am 10.6 10.3 8.5 87 1.0 CALM 0 0 0 0 1015.3 1014.9 0.0
23/04:30am 10.9 9.2 8.3 84 1.3 SSW 7 11 4 6 1015.3 1014.9 0.0
23/04:00am 11.2 8.8 8.6 84 1.3 SW 11 13 6 7 1015.2 1014.8 0.0
23/03:30am 11.9 9.5 8.7 81 1.6 SSW 11 15 6 8 1015.3 1014.9 0.0
23/03:00am 11.5 8.7 8.4 81 1.5 SW 13 15 7 8 1015.5 1015.1 0.0
23/02:30am 12.0 9.1 8.3 78 1.8 SSW 13 15 7 8 1015.7 1015.3 0.0
23/02:00am 13.1 9.8 8.2 72 2.5 SSW 15 19 8 10 1015.7 1015.3 0.0
23/01:30am 13.6 10.3 8.2 70 2.7 SSW 15 17 8 9 1015.9 1015.5 0.0
23/01:00am 14.1 10.8 8.1 67 3.0 SSW 15 19 8 10 1016.0 1015.6 0.0
23/12:30am 14.7 11.4 8.2 65 3.3 SSW 15 20 8 11 1016.0 1015.6 0.0
23/12:00am 15.0 11.4 8.3 64 3.4 SSW 17 20 9 11 1016.0 1015.6 0.0
 
Date/Time
EDT
Temp
°C
App
Temp
°C
Dew
Point
°C
Rel
Hum
%
Delta-T
°C
Wind Press
QNH
hPa
Press
MSL
hPa
Rain since
9am
mm
Dir  Spd
km/h
Gust
km/h
Spd
kts
Gust
kts
22/11:30pm 15.5 11.5 8.3 62 3.7 SSW 19 24 10 13 1016.0 1015.6 0.0
22/11:00pm 15.2 11.6 8.4 64 3.5 SSW 17 20 9 11 1015.9 1015.5 0.0
22/10:30pm 15.2 11.6 8.2 63 3.6 SW 17 20 9 11 1015.8 1015.4 0.0
22/10:00pm 15.3 12.4 8.3 63 3.6 SW 13 17 7 9 1015.6 1015.2 0.0
22/09:30pm 15.3 12.8 8.3 63 3.6 WSW 11 13 6 7 1015.4 1015.0 0.0
22/09:00pm 16.0 13.5 8.2 60 4.0 WSW 11 13 6 7 1015.1 1014.7 0.0
22/08:30pm 16.1 13.5 7.8 58 4.2 WSW 11 13 6 7 1014.8 1014.4 0.0
22/08:00pm 17.3 14.5 6.8 50 5.3 SW 11 15 6 8 1014.4 1014.0 0.0
22/07:30pm 18.1 14.5 6.6 47 5.8 SW 15 19 8 10 1013.9 1013.6 0.0
22/07:00pm 20.3 16.5 5.9 39 7.2 SSW 15 22 8 12 1013.6 1013.3 0.0
22/06:30pm 20.6 15.3 5.0 36 7.7 SW 22 30 12 16 1013.3 1012.9 0.0
22/06:00pm 21.3 15.6 4.8 34 8.2 SSW 24 35 13 19 1013.1 1012.7 0.0
22/05:30pm 21.2 15.0 4.3 33 8.3 SW 26 37 14 20 1012.9 1012.5 0.0
22/05:00pm 22.5 16.4 5.0 32 8.8 SW 26 35 14 19 1012.7 1012.3 0.0
22/04:30pm 21.6 15.9 4.7 33 8.4 SW 24 35 13 19 1012.9 1012.5 0.0
22/04:00pm 22.2 17.1 6.0 35 8.3 SW 22 33 12 18 1012.9 1012.5 0.0
22/03:30pm 22.0 16.3 6.7 37 7.9 SSW 26 37 14 20 1013.3 1012.9 0.0
22/03:00pm 21.6 15.3 5.5 35 8.1 SW 28 39 15 21 1013.8 1013.5 0.0
22/02:30pm 22.0 17.1 6.7 37 7.9 SW 22 33 12 18 1014.3 1013.9 0.0
22/02:00pm 20.8 15.5 6.7 40 7.2 WSW 24 37 13 20 1014.6 1014.2 0.0
22/01:30pm 20.0 15.2 7.4 44 6.5 WSW 22 33 12 18 1014.8 1014.4 0.0
22/01:00pm 19.8 15.0 7.2 44 6.5 WSW 22 35 12 19 1015.2 1014.8 0.0
22/12:30pm 19.0 14.8 8.1 49 5.7 WSW 20 28 11 15 1015.5 1015.1 0.0
22/12:00pm 18.0 13.8 8.3 53 5.0 SW 20 37 11 20 1015.9 1015.5 0.0
22/11:30am 16.6 12.3 7.0 53 4.8 WSW 19 33 10 18 1016.1 1015.7 0.0
22/11:00am 16.1 12.0 7.8 58 4.2 WSW 19 35 10 19 1016.5 1016.1 0.0
22/10:30am 15.0 11.6 7.8 62 3.6 W 15 24 8 13 1016.7 1016.3 0.0
22/10:00am 14.3 10.9 7.6 64 3.3 SW 15 28 8 15 1017.0 1016.6 0.0
22/09:30am 13.4 9.6 7.6 68 2.9 S 17 22 9 12 1017.1 1016.7 0.0
22/09:00am 12.1 7.9 7.6 74 2.2 SW 19 24 10 13 1016.9 1016.5 0.0
22/08:30am 11.8 7.6 8.3 79 1.7 SW 20 30 11 16 1016.9 1016.5 0.0
22/08:00am 11.2 6.9 7.7 79 1.7 SW 20 30 11 16 1016.8 1016.4 0.0
22/07:30am 10.3 6.5 7.7 84 1.3 SW 17 20 9 11 1016.6 1016.2 0.0
22/07:00am 9.2 6.8 6.8 85 1.1 W 9 11 5 6 1016.4 1016.0 0.0
22/06:30am 7.9 4.9 6.2 89 0.8 W 11 13 6 7 1016.2 1015.8 0.0
22/06:00am 8.3 5.3 6.1 86 1.0 WSW 11 11 6 6 1016.0 1015.6 0.0
22/05:30am 8.8 6.3 6.6 86 1.0 WSW 9 13 5 7 1015.9 1015.5 0.0
22/05:00am 9.2 6.7 6.5 83 1.3 SW 9 11 5 6 1015.8 1015.4 0.0
22/04:30am 10.0 8.0 7.3 83 1.3 WSW 7 9 4 5 1015.9 1015.5 0.0
22/04:00am 9.5 8.4 6.9 84 1.2 W 2 7 1 4 1015.8 1015.4 0.0
22/03:30am 10.3 7.9 6.8 79 1.7 SSW 9 13 5 7 1016.0 1015.6 0.0
22/03:00am 11.3 7.8 7.4 77 1.9 SSW 15 17 8 9 1016.1 1015.7 0.0
22/02:30am 11.4 8.1 7.9 79 1.7 SSW 15 20 8 11 1016.2 1015.8 0.0
22/02:00am 11.1 8.8 7.6 79 1.7 SW 9 11 5 6 1016.4 1016.0 0.0
22/01:30am 11.6 9.6 7.3 75 2.1 SSW 7 11 4 6 1016.6 1016.2 0.0
22/01:00am 11.9 10.1 8.0 77 1.9 SSW 7 9 4 5 1016.8 1016.4 0.0
22/12:30am 12.4 10.8 8.1 75 2.1 WSW 6 9 3 5 1017.0 1016.6 0.0
22/12:00am 13.3 12.9 8.2 71 2.6 CALM 0 0 0 0 1016.9 1016.5 0.0
 
Date/Time
EDT
Temp
°C
App
Temp
°C
Dew
Point
°C
Rel
Hum
%
Delta-T
°C
Wind Press
QNH
hPa
Press
MSL
hPa
Rain since
9am
mm
Dir  Spd
km/h
Gust
km/h
Spd
kts
Gust
kts
21/11:30pm 13.2 10.9 7.6 69 2.8 SW 9 11 5 6 1016.9 1016.5 0.0
21/11:00pm 14.0 11.8 8.0 67 3.0 WSW 9 11 5 6 1017.0 1016.6 0.0
21/10:30pm 14.7 12.2 8.2 65 3.3 SW 11 13 6 7 1017.0 1016.6 0.0
21/10:00pm 15.5 13.0 8.3 62 3.7 SW 11 15 6 8 1017.1 1016.7 0.0
21/09:30pm 15.3 13.0 9.0 66 3.3 SW 11 13 6 7 1017.1 1016.7 0.0
21/09:00pm 16.0 13.2 8.7 62 3.8 SW 13 17 7 9 1017.0 1016.6 0.0
21/08:30pm 16.7 13.9 8.4 58 4.3 SSW 13 17 7 9 1016.8 1016.4 0.0
21/08:00pm 17.8 15.0 8.4 54 4.9 SSW 13 17 7 9 1016.8 1016.4 0.0
21/07:30pm 19.3 16.0 8.0 48 5.9 SSW 15 20 8 11 1016.7 1016.3 0.0
21/07:00pm 21.4 17.6 7.6 41 7.2 SSW 17 24 9 13 1016.5 1016.1 0.0
21/06:30pm 22.4 17.9 7.0 37 8.0 SSW 20 26 11 14 1016.3 1015.9 0.0
21/06:00pm 23.0 18.6 7.5 37 8.1 SSW 20 30 11 16 1016.3 1015.9 0.0
21/05:30pm 23.1 18.8 6.8 35 8.5 S 19 28 10 15 1016.3 1015.9 0.0
21/05:00pm 22.8 18.2 8.1 39 7.8 SSW 22 30 12 16 1016.5 1016.1 0.0
21/04:30pm 23.5 19.8 9.5 41 7.7 SSW 19 24 10 13 1016.7 1016.3 0.0
21/04:00pm 23.8 19.8 9.0 39 8.0 SSW 20 26 11 14 1017.0 1016.6 0.0
21/03:30pm 22.4 18.7 7.8 39 7.7 S 17 24 9 13 1017.5 1017.1 0.0
21/03:00pm 22.8 19.4 7.8 38 7.9 SSE 15 24 8 13 1017.8 1017.4 0.0
21/02:30pm 23.3 19.8 8.6 39 7.9 SW 17 28 9 15 1018.3 1018.0 0.0
21/02:00pm 21.7 18.2 8.9 44 6.8 S 17 26 9 14 1018.8 1018.5 0.0
21/01:30pm 22.0 18.4 9.9 46 6.6 SSW 19 26 10 14 1019.2 1018.9 0.0
21/01:00pm 21.9 19.7 9.4 45 6.7 SSW 11 19 6 10 1019.6 1019.2 0.0
21/12:30pm 22.0 20.4 12.8 56 5.3 SW 13 20 7 11 1019.9 1019.5 0.0
21/12:00pm 21.2 19.7 11.8 55 5.3 SSE 11 20 6 11 1020.4 1020.0 0.0
21/11:30am 20.8 20.0 11.7 56 5.1 WSW 7 19 4 10 1020.7 1020.3 0.0
21/11:00am 19.4 18.8 11.7 61 4.3 SSE 6 11 3 6 1021.0 1020.6 0.0
21/10:30am 18.9 18.2 11.9 64 3.9 SSE 7 13 4 7 1021.2 1020.8 0.0
21/10:00am 18.2 18.0 11.7 66 3.6 SE 4 11 2 6 1021.3 1020.9 0.0
21/09:30am 16.9 16.3 11.6 71 2.9 ESE 6 11 3 6 1021.2 1020.8 0.0
21/09:00am 15.9 14.8 12.1 78 2.1 ESE 9 15 5 8 1021.1 1020.7 0.0
21/08:30am 14.7 13.5 11.7 82 1.6 ESE 9 11 5 6 1021.1 1020.7 0.0
21/08:00am 12.7 11.3 10.8 88 1.0 SE 9 11 5 6 1021.0 1020.6 0.0
21/07:30am 11.5 10.8 11.3 99 0.1 SW 6 7 3 4 1020.8 1020.4 0.0
21/07:00am 9.9 8.6 9.8 99 0.1 W 7 7 4 4 1020.8 1020.4 0.0
21/06:30am 8.9 7.3 8.8 99 0.0 WSW 7 9 4 5 1020.5 1020.1 0.0
21/06:00am 9.1 8.9 9.0 99 0.0 CALM 0 0 0 0 1020.2 1019.8 0.0
21/05:30am 9.1 8.8 8.6 97 0.2 CALM 0 0 0 0 1020.1 1019.7 0.0
21/05:00am 9.3 7.6 8.5 95 0.4 SW 7 7 4 4 1020.3 1019.9 0.0
21/04:30am 9.5 9.1 8.4 93 0.5 CALM 0 0 0 0 1020.3 1019.9 0.0
21/04:00am 9.9 7.9 8.5 91 0.7 SW 9 11 5 6 1020.4 1020.0 0.0
21/03:30am 10.2 8.4 8.1 87 1.0 SW 7 9 4 5 1020.6 1020.2 0.0
21/03:00am 10.7 8.1 7.9 83 1.4 SW 11 13 6 7 1020.9 1020.5 0.0
21/02:30am 10.9 7.9 7.8 81 1.5 SW 13 17 7 9 1021.2 1020.8 0.0
21/02:00am 11.1 8.0 7.4 78 1.8 SW 13 17 7 9 1021.3 1020.9 0.0
21/01:30am 11.5 8.4 7.2 75 2.1 SW 13 15 7 8 1021.6 1021.2 0.0
21/01:00am 11.9 8.7 6.8 71 2.4 WSW 13 17 7 9 1021.7 1021.3 0.0
21/12:30am 12.7 9.0 6.5 66 3.0 SW 15 19 8 10 1021.9 1021.5 0.0
21/12:00am 12.5 8.8 6.5 67 2.9 SW 15 17 8 9 1022.2 1021.8 0.0
 
Date/Time
EDT
Temp
°C
App
Temp
°C
Dew
Point
°C
Rel
Hum
%
Delta-T
°C
Wind Press
QNH
hPa
Press
MSL
hPa
Rain since
9am
mm
Dir  Spd
km/h
Gust
km/h
Spd
kts
Gust
kts
20/11:30pm 13.0 9.0 6.6 65 3.1 SSW 17 20 9 11 1022.2 1021.8 0.0
20/11:00pm 13.8 9.9 7.1 64 3.3 SW 17 20 9 11 1022.4 1022.0 0.0
20/10:30pm 14.7 10.4 6.8 59 3.9 SW 19 24 10 13 1022.3 1021.9 0.0
20/10:00pm 15.1 10.8 7.2 59 3.9 SW 19 24 10 13 1021.9 1021.5 0.0
20/09:30pm 15.3 11.4 7.3 59 4.0 SW 17 22 9 12 1021.8 1021.4 0.0
20/09:00pm 16.0 11.7 7.0 55 4.5 SW 19 20 10 11 1021.6 1021.2 0.0
20/08:30pm 17.2 12.9 7.8 54 4.8 SW 20 28 11 15 1021.4 1021.0 0.0
20/08:00pm 17.9 13.3 6.7 48 5.6 SSW 20 26 11 14 1020.9 1020.5 0.0
20/07:30pm 18.8 14.2 6.6 45 6.1 SSW 20 24 11 13 1020.6 1020.2 0.0
20/07:00pm 20.6 15.9 6.2 39 7.3 SSW 20 30 11 16 1020.1 1019.7 0.0
20/06:30pm 21.8 16.3 6.1 36 8.0 SSW 24 32 13 17 1019.7 1019.3 0.0
20/06:00pm 22.4 17.1 6.6 36 8.1 SSW 24 33 13 18 1019.3 1019.0 0.0
20/05:30pm 22.7 17.0 6.5 35 8.4 SW 26 35 14 19 1019.3 1019.0 0.0
20/05:00pm 23.0 17.0 5.4 32 8.9 SW 26 33 14 18 1019.3 1019.0 0.0
20/04:30pm 22.0 15.6 5.4 34 8.3 SW 28 35 15 19 1019.6 1019.2 0.0
20/04:00pm 22.9 16.4 4.9 31 9.0 SSW 28 37 15 20 1019.7 1019.3 0.0
20/03:30pm 22.5 16.1 5.4 33 8.6 SSW 28 39 15 21 1019.9 1019.5 0.0
20/03:00pm 23.4 16.2 5.8 32 9.0 WSW 33 43 18 23 1020.1 1019.7 0.0
20/02:30pm 23.8 18.5 8.6 38 8.2 SW 26 35 14 19 1020.3 1019.9 0.0
20/02:00pm 22.7 18.2 11.4 49 6.3 SW 26 33 14 18 1020.5 1020.1 0.0
20/01:30pm 22.3 17.5 11.7 51 6.0 SW 28 37 15 20 1020.9 1020.5 0.0
20/01:00pm 21.7 16.7 11.1 51 5.9 SW 28 37 15 20 1021.0 1020.6 0.0
20/12:30pm 20.6 16.0 9.5 49 6.0 SW 24 33 13 18 1021.5 1021.1 0.0
20/12:00pm 20.0 15.8 12.5 62 4.2 SW 26 35 14 19 1021.4 1021.0 0.0
20/11:30am 18.7 15.6 14.6 77 2.4 SW 24 33 13 18 1021.5 1021.1 0.0
20/11:00am 18.4 16.0 16.4 88 1.2 SW 24 28 13 15 1021.8 1021.4 0.0
20/10:30am 16.6 14.0 16.0 96 0.4 SW 24 32 13 17 1021.7 1021.3 0.0
20/10:00am 15.9 12.8 15.6 98 0.2 SW 26 33 14 18 1021.6 1021.2 0.0
20/09:30am 16.5 14.8 16.3 99 0.1 SW 20 28 11 15 1021.4 1021.0 0.0
20/09:00am 16.6 14.2 16.4 99 0.1 SW 24 35 13 19 1021.3 1020.9 30.6
20/08:30am 16.9 15.4 16.7 99 0.1 SW 20 30 11 16 1020.8 1020.4 30.6
20/08:00am 17.0 14.8 16.8 99 0.1 SW 24 33 13 18 1020.4 1020.0 30.6

Other Formats:

Comma delimited format used in spreadsheet applications
http://www.bom.gov.au/fwo/IDN60801/IDN60801.95708.axf

JavaScript Object Notation format (JSON) in row-major order
http://www.bom.gov.au/fwo/IDN60801/IDN60801.95708.json